Home > Products > Valid Products > TAF

000
FTUS44 KLIX 251514 AAA
TAFGPT
TAF AMD
KGPT 251514Z 2515/2612 15010KT P6SM BKN020
     FM251630 15012KT P6SM SCT030 BKN080
     FM260100 15008KT P6SM SCT250
     FM261000 16006KT P6SM BKN090=



000
FTUS44 KLIX 251400 AAB
TAFMCB
TAF AMD
KMCB 251400Z 2514/2612 18006KT P6SM OVC012
      TEMPO 2514/2515 SCT012
     FM251500 18007KT P6SM BKN015
     FM251600 18007KT P6SM SCT025 BKN070
     FM260000 17007KT P6SM BKN110
     FM261000 VRB03KT P6SM OVC025=



000
FTUS44 KLIX 251336 AAA
TAFNEW
TAF AMD
KNEW 251336Z 2514/2612 15009KT P6SM BKN012
     FM251430 15008KT P6SM SCT015
     FM251800 12010KT P6SM SCT030 BKN080
     FM260500 15008KT P6SM BKN250=



000
FTUS44 KLIX 251127
TAFMCB
TAF
KMCB 251127Z 2512/2612 VRB03KT 4SM BR OVC003
     FM251400 18007KT P6SM BKN015
     FM251600 18007KT P6SM SCT030 BKN070
     FM260000 17007KT P6SM BKN110
     FM261000 VRB03KT P6SM OVC025=



000
FTUS44 KLIX 251127
TAFBTR
TAF
KBTR 251127Z 2512/2612 12004KT P6SM SCT020
     FM251400 16007KT P6SM BKN025
     FM251600 16009KT P6SM SCT030 BKN060
     FM260400 16007KT P6SM OVC020
     FM260600 15005KT P6SM OVC010=



000
FTUS44 KLIX 251127
TAFNEW
TAF
KNEW 251127Z 2512/2612 15006KT P6SM BKN150
     FM251600 15008KT P6SM SCT025 BKN050
     FM251800 12010KT P6SM SCT030 BKN080
     FM260500 15008KT P6SM BKN250=



000
FTUS44 KLIX 251127
TAFMSY
TAF
KMSY 251127Z 2512/2612 14005KT P6SM SCT030
     FM251600 16008KT P6SM BKN035
     FM260100 16008KT P6SM SCT025=



000
FTUS44 KLIX 251127
TAFGPT
TAF
KGPT 251127Z 2512/2612 VRB04KT P6SM SCT025 SCT250
     FM251500 15008KT P6SM SCT030 BKN080
     FM260100 15008KT P6SM SCT250
     FM261000 16006KT P6SM BKN090=



000
FTUS44 KLIX 242320
TAFMSY
TAF
KMSY 242320Z 2500/2524 16013KT P6SM SCT040
     FM250300 15006KT P6SM SCT110
     FM251100 15006KT P6SM BKN080
     FM252300 15011KT P6SM SCT200=



000
FTUS44 KLIX 242320
TAFGPT
TAF
KGPT 242320Z 2500/2524 16009KT P6SM SKC
     FM250900 16004KT P6SM SCT250
     FM251500 13008KT P6SM SCT250
     FM251800 14013KT P6SM FEW250=



000
FTUS44 KLIX 242320
TAFMCB
TAF
KMCB 242320Z 2500/2524 19008KT P6SM FEW050
     FM250500 17004KT P6SM SCT200
     FM251000 VRB03KT P6SM BKN015
      TEMPO 2512/2515 BKN003
     FM251500 16009KT P6SM SCT250
     FM252100 17010G18KT P6SM SCT250=



000
FTUS44 KLIX 242320
TAFNEW
TAF
KNEW 242320Z 2500/2524 11015KT P6SM FEW035
     FM251000 15006KT P6SM SCT150
     FM251500 13007KT P6SM BKN090
     FM251700 12010KT P6SM SCT250=



000
FTUS44 KLIX 242320
TAFBTR
TAF
KBTR 242320Z 2500/2524 10009KT P6SM SCT045
     FM250900 14004KT P6SM BKN020
      TEMPO 2512/2514 BKN010
     FM251400 15008KT P6SM BKN025
     FM251600 16009KT P6SM BKN035=



000
FTUS44 KLIX 241722
TAFBTR
TAF
KBTR 241722Z 2418/2518 13008KT P6SM SCT035
     FM250000 15009KT P6SM BKN110
     FM250600 13005KT P6SM BKN015
     FM251500 15010KT P6SM BKN025=



000
FTUS44 KLIX 241722
TAFGPT
TAF
KGPT 241722Z 2418/2518 14007KT P6SM SKC
     FM242100 15011KT P6SM SKC
     FM250200 15005KT P6SM SKC
     FM251600 14011KT P6SM BKN250=



000
FTUS44 KLIX 241722
TAFMCB
TAF
KMCB 241722Z 2418/2518 17007KT P6SM SKC
     FM250400 VRB03KT P6SM SCT250
     FM250800 00000KT P6SM BKN015
     FM251500 17008KT P6SM BKN100=



000
FTUS44 KLIX 241722
TAFMSY
TAF
KMSY 241722Z 2418/2518 17008KT P6SM BKN035
     FM250400 15005KT P6SM SCT250
     FM251600 15010KT P6SM BKN050=



000
FTUS44 KLIX 241722
TAFNEW
TAF
KNEW 241722Z 2418/2518 12010KT P6SM FEW035
     FM250600 16005KT P6SM SCT250
     FM251500 14010KT P6SM SCT250=



000
FTUS44 KLIX 232332
TAFNEW
TAF
KNEW 232332Z 2400/2424 11010KT P6SM SKC
     FM240200 14008KT P6SM FEW250
     FM241600 11008KT P6SM FEW250=



000
FTUS44 KLIX 232332
TAFGPT
TAF
KGPT 232332Z 2400/2424 16008KT P6SM SKC
     FM241000 00000KT P6SM SKC
     FM241500 13008KT P6SM SKC=



000
FTUS44 KLIX 232332
TAFMSY
TAF
KMSY 232332Z 2400/2424 19009KT P6SM SCT050 BKN250=



000
FTUS44 KLIX 232332
TAFBTR
TAF
KBTR 232332Z 2400/2424 11006KT P6SM SKC=



000
FTUS44 KLIX 232332
TAFMCB
TAF
KMCB 232332Z 2400/2424 15004KT P6SM SKC
     FM240700 00000KT P6SM SKC
     FM241400 16004KT P6SM FEW250=



000
FTUS44 KLIX 231725
TAFBTR
TAF
KBTR 231725Z 2318/2418 13006KT P6SM SCT040
     FM240200 VRB04KT P6SM BKN250
     FM241500 12006KT P6SM SKC=



000
FTUS44 KLIX 231725
TAFMCB
TAF
KMCB 231725Z 2318/2418 17006KT P6SM SKC
     FM241000 00000KT P6SM FEW250
     FM241600 15006KT P6SM FEW250=



000
FTUS44 KLIX 231725
TAFGPT
TAF
KGPT 231725Z 2318/2418 15008KT P6SM SKC
     FM240200 VRB04KT P6SM FEW250
     FM241500 13007KT P6SM SKC=



000
FTUS44 KLIX 231725
TAFNEW
TAF
KNEW 231725Z 2318/2418 07008KT P6SM SKC
     FM232100 13007KT P6SM SKC
     FM240200 16005KT P6SM BKN250
     FM241500 11008KT P6SM SKC=



000
FTUS44 KLIX 231725
TAFMSY
TAF
KMSY 231725Z 2318/2418 12006KT P6SM FEW050
     FM240200 15004KT P6SM BKN250
     FM241500 13007KT P6SM BKN250=



    US Dept of Commerce
    National Oceanic and Atmospheric Administration
    National Weather Service
    1325 East West Highway
    Silver Spring, MD 20910
    Page Author: NWS Internet Services Team
Disclaimer
Information Quality
Credits
Glossary
Privacy Policy
Freedom of Information Act (FOIA)
About Us
Career Opportunities